Time;durP1;ratioP1;P1;durP2;ratioP2;P2;SDS_P1;SDS_P2;PMS_P1;PMS_P2;Temp;Humidity;BMP_temperature;BMP_pressure;BME280_temperature;BME280_humidity;BME280_pressure;Samples;Min_cycle;Max_cycle;Signal;HPM_P1;HPM_P2
2024/01/30 00:00:08;;;;;;;7.87;5.93;;;7.30;99.90;;;;;;5069016;28;21018;-81
2024/01/30 00:02:37;;;;;;;7.50;5.60;;;7.20;99.90;;;;;;5068357;28;20458;-81
2024/01/30 00:05:04;;;;;;;8.17;6.57;;;7.30;99.90;;;;;;5071338;28;20524;-79
2024/01/30 00:07:31;;;;;;;7.90;5.40;;;7.30;99.90;;;;;;5071281;28;20444;-81
2024/01/30 00:09:58;;;;;;;7.73;6.50;;;7.30;99.90;;;;;;5073139;28;20455;-81
2024/01/30 00:12:24;;;;;;;8.43;7.07;;;7.30;99.90;;;;;;5076036;28;20552;-78
2024/01/30 00:14:52;;;;;;;10.03;6.37;;;7.40;99.90;;;;;;5074971;28;20999;-81
2024/01/30 00:17:20;;;;;;;7.70;5.87;;;7.30;99.90;;;;;;5075109;28;20498;-81
2024/01/30 00:19:48;;;;;;;9.87;5.90;;;7.30;99.90;;;;;;5075393;28;20518;-81
2024/01/30 00:22:15;;;;;;;7.63;5.83;;;7.30;99.90;;;;;;5074963;28;20522;-81
2024/01/30 00:24:42;;;;;;;7.43;6.30;;;7.30;99.90;;;;;;5075685;28;21009;-81
2024/01/30 00:27:09;;;;;;;8.17;6.27;;;7.30;99.90;;;;;;5075352;28;20454;-81
2024/01/30 00:29:36;;;;;;;11.10;6.73;;;7.20;99.90;;;;;;5075034;28;20490;-81
2024/01/30 00:32:03;;;;;;;8.67;6.50;;;7.20;99.90;;;;;;5074986;28;20454;-81
2024/01/30 00:34:29;;;;;;;13.50;6.10;;;7.20;99.90;;;;;;5075321;28;20972;-81
2024/01/30 00:36:58;;;;;;;9.93;6.60;;;7.20;99.90;;;;;;5081938;28;20520;-81
2024/01/30 00:39:24;;;;;;;11.23;6.23;;;7.20;99.90;;;;;;5079544;28;20469;-81
2024/01/30 00:41:51;;;;;;;8.73;6.50;;;7.20;99.90;;;;;;5070949;28;20450;-81
2024/01/30 00:44:18;;;;;;;11.77;7.07;;;7.20;99.90;;;;;;5075176;28;20462;-81
2024/01/30 00:46:45;;;;;;;9.83;5.60;;;7.20;99.90;;;;;;5074692;28;20455;-82
2024/01/30 00:49:12;;;;;;;12.93;7.70;;;7.20;99.90;;;;;;5075273;28;20487;-81
2024/01/30 00:51:38;;;;;;;9.43;6.93;;;7.20;99.90;;;;;;5067083;28;20472;-81
2024/01/30 00:54:07;;;;;;;7.97;6.20;;;7.20;99.90;;;;;;5074641;28;20458;-82
2024/01/30 00:56:34;;;;;;;8.43;7.13;;;7.30;99.90;;;;;;5075157;28;20501;-81
2024/01/30 00:59:01;;;;;;;9.80;7.50;;;7.30;99.90;;;;;;5074720;28;20824;-80
2024/01/30 01:01:28;;;;;;;8.77;6.80;;;7.30;99.90;;;;;;5074541;28;20480;-81
2024/01/30 01:03:55;;;;;;;9.23;7.30;;;7.30;99.90;;;;;;5074053;28;20458;-81
2024/01/30 01:06:22;;;;;;;9.50;7.23;;;7.40;99.90;;;;;;5073718;28;20993;-82
2024/01/30 01:08:51;;;;;;;10.33;7.27;;;7.40;99.90;;;;;;5073408;28;20475;-80
2024/01/30 01:11:19;;;;;;;10.43;7.23;;;7.40;99.90;;;;;;5074203;28;20454;-81
2024/01/30 01:13:45;;;;;;;8.30;7.00;;;7.40;99.90;;;;;;5074225;28;20859;-80
2024/01/30 01:16:15;;;;;;;9.33;6.53;;;7.40;99.90;;;;;;5074142;28;20459;-80
2024/01/30 01:18:42;;;;;;;12.50;8.10;;;7.40;99.90;;;;;;5077601;28;20542;-80
2024/01/30 01:21:09;;;;;;;10.07;6.80;;;7.40;99.90;;;;;;5086812;28;20464;-81
2024/01/30 01:23:35;;;;;;;7.47;6.63;;;7.30;99.90;;;;;;5074139;28;20546;-80
2024/01/30 01:26:03;;;;;;;9.37;7.53;;;7.40;99.90;;;;;;5073379;28;20461;-81
2024/01/30 01:28:31;;;;;;;9.47;7.23;;;7.40;99.90;;;;;;5071070;28;20489;-81
2024/01/30 01:31:04;;;;;;;10.00;7.43;;;7.40;99.90;;;;;;5069062;28;20539;-81
2024/01/30 01:33:31;;;;;;;11.80;6.60;;;7.40;99.90;;;;;;5073977;28;20467;-82
2024/01/30 01:35:58;;;;;;;7.87;6.90;;;7.40;99.90;;;;;;5066890;28;20471;-82
2024/01/30 01:38:25;;;;;;;10.30;6.63;;;7.30;99.90;;;;;;5072699;28;20496;-81
2024/01/30 01:40:52;;;;;;;7.63;6.13;;;7.30;99.90;;;;;;5073197;28;20474;-81
2024/01/30 01:43:19;;;;;;;8.30;6.73;;;7.30;99.90;;;;;;5073333;28;20960;-81
2024/01/30 01:45:47;;;;;;;11.03;6.90;;;7.30;99.90;;;;;;5073364;28;20456;-82
2024/01/30 01:48:14;;;;;;;9.90;7.80;;;7.30;99.90;;;;;;5074151;28;20466;-80
2024/01/30 01:50:42;;;;;;;8.13;6.40;;;7.30;99.90;;;;;;5073665;28;20550;-81
2024/01/30 01:53:09;;;;;;;12.37;7.87;;;7.20;99.90;;;;;;5073995;28;20557;-82
2024/01/30 01:55:37;;;;;;;11.67;8.40;;;7.20;99.90;;;;;;5073991;28;20964;-81
2024/01/30 01:58:04;;;;;;;7.63;6.47;;;7.20;99.90;;;;;;5073437;28;20498;-80
2024/01/30 02:00:32;;;;;;;9.93;7.70;;;7.20;99.90;;;;;;5074026;28;20816;-82
2024/01/30 02:03:01;;;;;;;8.07;6.70;;;7.20;99.90;;;;;;5073963;28;20486;-81
2024/01/30 02:05:28;;;;;;;8.77;7.07;;;7.20;99.90;;;;;;5073091;28;20468;-81
2024/01/30 02:07:56;;;;;;;9.73;6.60;;;7.20;99.90;;;;;;5073368;28;20477;-81
2024/01/30 02:10:23;;;;;;;10.43;8.47;;;7.10;99.90;;;;;;5073971;28;21027;-81
2024/01/30 02:12:50;;;;;;;9.30;7.53;;;7.10;99.90;;;;;;5073818;28;20466;-80
2024/01/30 02:15:16;;;;;;;8.83;7.37;;;7.20;99.90;;;;;;5073051;28;20456;-81
2024/01/30 02:17:43;;;;;;;9.70;7.43;;;7.20;99.90;;;;;;5082678;28;21074;-82
2024/01/30 02:20:12;;;;;;;8.80;6.80;;;7.20;99.90;;;;;;5071042;28;20468;-82
2024/01/30 02:22:42;;;;;;;8.90;7.00;;;7.20;99.90;;;;;;5077325;28;20461;-81
2024/01/30 02:25:09;;;;;;;10.27;7.00;;;7.20;99.90;;;;;;5077604;28;20550;-81
2024/01/30 02:27:36;;;;;;;9.00;7.10;;;7.20;99.90;;;;;;5074753;28;20469;-80
2024/01/30 02:30:03;;;;;;;11.10;7.60;;;7.20;99.90;;;;;;5076498;28;20539;-81
2024/01/30 02:32:30;;;;;;;13.93;8.27;;;7.20;99.90;;;;;;5084598;28;20462;-80
2024/01/30 02:34:57;;;;;;;9.33;6.57;;;7.30;99.90;;;;;;5088950;28;20502;-79
2024/01/30 02:37:24;;;;;;;9.33;6.63;;;7.20;99.90;;;;;;5093998;28;20525;-81
2024/01/30 02:39:52;;;;;;;8.53;6.53;;;7.20;99.90;;;;;;5079827;28;20463;-81
2024/01/30 02:42:19;;;;;;;8.87;7.40;;;7.20;99.90;;;;;;5080998;28;20458;-82
2024/01/30 02:44:45;;;;;;;9.47;7.50;;;7.20;99.90;;;;;;5080674;28;20453;-81
2024/01/30 02:47:12;;;;;;;8.30;6.60;;;7.20;99.90;;;;;;5069819;28;20447;-82
2024/01/30 02:49:39;;;;;;;8.77;7.00;;;7.20;99.90;;;;;;5080734;28;20554;-82
2024/01/30 02:52:06;;;;;;;11.67;7.07;;;7.20;99.90;;;;;;5070973;28;20444;-82
2024/01/30 02:54:33;;;;;;;13.30;7.20;;;7.20;99.90;;;;;;5067801;28;20834;-82
2024/01/30 02:57:01;;;;;;;9.10;6.40;;;7.20;99.90;;;;;;5075007;28;20458;-81
2024/01/30 02:59:28;;;;;;;15.23;6.73;;;7.20;99.90;;;;;;5080850;28;20485;-82
2024/01/30 03:01:54;;;;;;;8.07;6.37;;;7.10;99.90;;;;;;5070751;28;20459;-81
2024/01/30 03:04:21;;;;;;;10.33;7.40;;;7.10;99.90;;;;;;5069534;28;20563;-82
2024/01/30 03:06:48;;;;;;;8.80;6.70;;;7.10;99.90;;;;;;5074084;28;20458;-80
2024/01/30 03:09:17;;;;;;;10.40;6.63;;;7.10;99.90;;;;;;5074617;28;20562;-81
2024/01/30 03:11:44;;;;;;;14.23;8.37;;;7.10;99.90;;;;;;5066345;28;20537;-82
2024/01/30 03:14:12;;;;;;;9.30;6.40;;;7.10;99.90;;;;;;5074705;28;20458;-81
2024/01/30 03:16:39;;;;;;;8.50;6.60;;;7.10;99.90;;;;;;5075088;28;20880;-81
2024/01/30 03:19:07;;;;;;;8.33;6.10;;;7.10;99.90;;;;;;5038616;28;1076890;-81
2024/01/30 03:21:34;;;;;;;8.13;5.73;;;7.00;99.90;;;;;;5074399;28;20529;-81
2024/01/30 03:24:01;;;;;;;10.83;8.17;;;7.00;99.90;;;;;;5077164;28;20456;-80
2024/01/30 03:26:27;;;;;;;9.30;7.00;;;7.00;99.90;;;;;;5075359;28;20828;-81
2024/01/30 03:28:54;;;;;;;8.70;6.03;;;7.00;99.90;;;;;;5077407;28;20557;-81
2024/01/30 03:31:22;;;;;;;11.80;6.80;;;7.00;99.90;;;;;;5076669;28;20456;-81
2024/01/30 03:33:49;;;;;;;10.50;6.80;;;7.00;99.90;;;;;;5075385;28;20450;-79
2024/01/30 03:36:17;;;;;;;10.40;5.87;;;7.00;99.90;;;;;;5075004;28;20466;-82
2024/01/30 03:38:43;;;;;;;8.97;7.27;;;7.10;99.90;;;;;;5074906;28;20571;-82
2024/01/30 03:41:10;;;;;;;9.27;6.30;;;7.00;99.90;;;;;;5075592;28;20458;-82
2024/01/30 03:43:37;;;;;;;9.30;6.40;;;7.10;99.90;;;;;;5075295;28;20496;-81
2024/01/30 03:46:04;;;;;;;8.00;6.63;;;7.10;99.90;;;;;;5077679;28;20448;-82
2024/01/30 03:48:33;;;;;;;9.23;7.53;;;7.10;99.90;;;;;;5079599;28;20554;-82
2024/01/30 03:50:59;;;;;;;10.13;6.60;;;7.20;99.90;;;;;;5079457;28;20461;-81
2024/01/30 03:53:26;;;;;;;11.53;6.30;;;7.10;99.90;;;;;;5078582;28;20477;-81
2024/01/30 03:55:53;;;;;;;9.00;6.10;;;7.10;99.90;;;;;;5079618;28;20546;-81
2024/01/30 03:58:20;;;;;;;11.30;7.50;;;7.10;99.90;;;;;;5083096;28;20512;-80
2024/01/30 04:00:47;;;;;;;6.70;6.00;;;7.10;99.90;;;;;;5094458;28;20461;-81
2024/01/30 04:03:15;;;;;;;8.50;6.57;;;7.10;99.90;;;;;;5094155;28;20475;-80
2024/01/30 04:05:43;;;;;;;9.03;6.63;;;7.10;99.90;;;;;;5093523;28;20519;-80
2024/01/30 04:08:10;;;;;;;7.80;5.90;;;7.00;99.90;;;;;;5093591;28;20535;-81
2024/01/30 04:10:37;;;;;;;6.33;5.40;;;7.00;99.90;;;;;;5094170;28;20595;-79
2024/01/30 04:13:04;;;;;;;7.57;5.53;;;7.00;99.90;;;;;;5092349;28;20538;-82
2024/01/30 04:15:31;;;;;;;6.20;5.57;;;7.00;99.90;;;;;;5084645;28;20541;-82
2024/01/30 04:17:59;;;;;;;9.80;6.50;;;6.90;99.90;;;;;;5084992;28;20502;-82
2024/01/30 04:20:26;;;;;;;11.27;6.67;;;6.90;99.90;;;;;;5085647;28;20456;-81
2024/01/30 04:22:54;;;;;;;7.30;5.63;;;6.90;99.90;;;;;;5084055;28;20482;-81
2024/01/30 04:25:21;;;;;;;7.90;6.13;;;6.80;99.90;;;;;;5083917;28;20452;-82
2024/01/30 04:27:48;;;;;;;10.53;5.33;;;6.80;99.90;;;;;;5084096;28;20474;-81
2024/01/30 04:30:15;;;;;;;9.70;6.37;;;6.80;99.90;;;;;;5078304;28;20542;-81
2024/01/30 04:32:42;;;;;;;6.67;4.70;;;6.80;99.90;;;;;;5083703;28;20543;-82
2024/01/30 04:35:09;;;;;;;8.10;6.53;;;6.80;99.90;;;;;;5076853;28;20452;-81
2024/01/30 04:37:35;;;;;;;8.83;6.10;;;6.80;99.90;;;;;;5076346;28;20517;-81
2024/01/30 04:40:05;;;;;;;6.87;5.30;;;6.80;99.90;;;;;;5068599;28;20461;-81
2024/01/30 04:42:31;;;;;;;7.40;6.27;;;6.80;99.90;;;;;;5071979;28;20452;-82
2024/01/30 04:44:58;;;;;;;8.60;5.77;;;6.70;99.90;;;;;;5069283;28;20449;-81
2024/01/30 04:47:25;;;;;;;8.40;6.03;;;6.80;99.90;;;;;;5077789;28;20454;-81
2024/01/30 04:49:52;;;;;;;10.03;6.30;;;6.80;99.90;;;;;;5076610;28;20482;-81
2024/01/30 04:52:19;;;;;;;7.10;6.20;;;6.70;99.90;;;;;;5075569;28;20449;-81
2024/01/30 04:54:46;;;;;;;7.10;5.87;;;6.70;99.90;;;;;;5084035;28;20462;-81
2024/01/30 04:57:14;;;;;;;6.03;5.43;;;6.80;99.90;;;;;;5081920;28;20468;-82
2024/01/30 04:59:41;;;;;;;10.07;6.47;;;6.80;99.90;;;;;;5081490;28;20518;-81
2024/01/30 05:02:08;;;;;;;9.50;6.17;;;6.70;99.90;;;;;;5075455;28;20493;-82
2024/01/30 05:04:35;;;;;;;8.37;5.70;;;6.80;99.90;;;;;;5080975;28;20469;-80
2024/01/30 05:07:01;;;;;;;12.93;7.63;;;6.70;99.90;;;;;;5080868;28;20466;-81
2024/01/30 05:09:29;;;;;;;8.83;5.77;;;6.70;99.90;;;;;;5079646;28;20486;-82
2024/01/30 05:11:55;;;;;;;8.20;5.60;;;6.70;99.90;;;;;;5077072;28;20452;-81
2024/01/30 05:14:23;;;;;;;9.20;5.23;;;6.70;99.90;;;;;;5083404;28;20938;-82
2024/01/30 05:16:50;;;;;;;7.07;6.03;;;6.70;99.90;;;;;;5082490;28;20536;-81
2024/01/30 05:19:18;;;;;;;7.13;5.60;;;6.70;99.90;;;;;;5082469;28;20511;-81
2024/01/30 05:21:44;;;;;;;11.73;6.33;;;6.70;99.90;;;;;;5081971;28;20457;-81
2024/01/30 05:24:11;;;;;;;6.70;5.57;;;6.70;99.90;;;;;;5081483;28;20458;-81
2024/01/30 05:26:38;;;;;;;8.73;5.60;;;6.70;99.90;;;;;;5081516;28;20456;-81
2024/01/30 05:29:06;;;;;;;7.63;5.80;;;6.70;99.90;;;;;;5081491;28;20473;-82
2024/01/30 05:31:35;;;;;;;7.57;6.03;;;6.70;99.90;;;;;;5083246;28;20495;-82
2024/01/30 05:34:02;;;;;;;8.63;6.17;;;6.60;99.90;;;;;;5084850;28;20459;-81
2024/01/30 05:36:29;;;;;;;6.27;5.00;;;6.60;99.90;;;;;;5084363;28;20902;-81
2024/01/30 05:38:57;;;;;;;7.87;5.17;;;6.60;99.90;;;;;;5080474;28;20498;-82
2024/01/30 05:41:24;;;;;;;6.30;5.07;;;6.60;99.90;;;;;;5076794;28;20538;-81
2024/01/30 05:43:51;;;;;;;8.23;5.30;;;6.50;99.90;;;;;;5084941;28;20448;-82
2024/01/30 05:46:17;;;;;;;7.03;5.33;;;6.50;99.90;;;;;;5075391;28;20487;-82
2024/01/30 05:48:46;;;;;;;7.40;5.07;;;6.50;99.90;;;;;;5082420;28;20555;-81
2024/01/30 05:51:12;;;;;;;8.77;5.37;;;6.50;99.90;;;;;;5082007;28;20454;-80
2024/01/30 05:53:39;;;;;;;11.93;5.73;;;6.50;99.90;;;;;;5069315;28;20452;-81
2024/01/30 05:56:07;;;;;;;8.07;5.83;;;6.40;99.90;;;;;;5078975;28;20526;-82
2024/01/30 05:58:34;;;;;;;7.30;5.33;;;6.30;99.90;;;;;;5066628;28;20539;-83
2024/01/30 06:01:00;;;;;;;5.33;4.37;;;6.30;99.90;;;;;;5076959;28;20462;-80
2024/01/30 06:03:27;;;;;;;6.57;5.00;;;6.30;99.90;;;;;;5067574;28;20452;-82
2024/01/30 06:05:55;;;;;;;7.70;6.00;;;6.30;99.90;;;;;;5067037;28;20963;-81
2024/01/30 06:08:22;;;;;;;8.63;5.43;;;6.30;99.90;;;;;;5077453;28;20467;-81
2024/01/30 06:10:49;;;;;;;12.03;7.10;;;6.30;99.90;;;;;;5081156;28;20626;-79
2024/01/30 06:13:16;;;;;;;6.70;4.83;;;6.30;99.90;;;;;;5067892;28;20454;-83
2024/01/30 06:15:43;;;;;;;12.37;7.30;;;6.20;99.90;;;;;;5066387;28;20876;-79
2024/01/30 06:18:10;;;;;;;12.17;7.13;;;6.20;99.90;;;;;;5074718;28;20576;-80
2024/01/30 06:20:36;;;;;;;12.67;6.93;;;6.30;99.90;;;;;;5077691;28;20460;-78
2024/01/30 06:23:05;;;;;;;12.93;8.93;;;6.30;99.90;;;;;;5073963;28;20460;-80
2024/01/30 06:25:32;;;;;;;15.67;7.87;;;6.30;99.90;;;;;;5072649;28;20540;-80
2024/01/30 06:27:58;;;;;;;15.20;7.37;;;6.30;99.90;;;;;;5080461;28;20555;-80
2024/01/30 06:30:25;;;;;;;14.50;7.97;;;6.30;99.90;;;;;;5074873;28;20457;-80
2024/01/30 06:32:52;;;;;;;14.10;8.03;;;6.30;99.90;;;;;;5072593;28;20943;-82
2024/01/30 06:35:19;;;;;;;15.07;7.60;;;6.30;99.90;;;;;;5079186;28;20451;-80
2024/01/30 06:37:46;;;;;;;14.43;6.60;;;6.30;99.90;;;;;;5082856;28;20549;-80
2024/01/30 06:40:14;;;;;;;9.20;6.13;;;6.30;99.90;;;;;;5082975;28;20521;-79
2024/01/30 06:42:41;;;;;;;8.93;5.33;;;6.30;99.90;;;;;;5081872;28;20483;-80
2024/01/30 06:45:09;;;;;;;11.20;6.40;;;6.40;99.90;;;;;;5081720;28;20463;-80
2024/01/30 06:47:36;;;;;;;10.20;7.00;;;6.40;99.90;;;;;;5081952;28;20560;-80
2024/01/30 06:50:03;;;;;;;9.60;6.23;;;6.40;99.90;;;;;;5081516;28;20894;-81
2024/01/30 06:52:30;;;;;;;9.33;6.50;;;6.40;99.90;;;;;;5081221;28;20543;-79
2024/01/30 06:54:57;;;;;;;11.57;6.73;;;6.50;99.90;;;;;;5078538;28;20518;-81
2024/01/30 06:57:25;;;;;;;9.40;5.70;;;6.50;99.90;;;;;;5081334;28;20862;-80
2024/01/30 06:59:56;;;;;;;9.40;5.97;;;6.50;99.90;;;;;;5082241;28;20479;-79
2024/01/30 07:02:23;;;;;;;9.17;5.43;;;6.60;99.90;;;;;;5081251;28;20518;-80
2024/01/30 07:04:50;;;;;;;7.40;5.63;;;6.60;99.90;;;;;;5079404;28;20480;-81
2024/01/30 07:07:17;;;;;;;7.83;5.27;;;6.70;99.90;;;;;;5081328;28;20464;-80
2024/01/30 07:09:43;;;;;;;10.17;5.70;;;6.70;99.90;;;;;;5074707;28;20484;-83
2024/01/30 07:12:10;;;;;;;9.77;5.57;;;6.70;99.90;;;;;;5077270;28;20458;-81
2024/01/30 07:14:39;;;;;;;11.70;5.63;;;6.70;99.90;;;;;;5080978;28;20487;-81
2024/01/30 07:17:06;;;;;;;10.63;5.90;;;6.80;99.90;;;;;;5078138;28;20505;-80
2024/01/30 07:19:33;;;;;;;10.27;5.60;;;6.80;99.90;;;;;;5079132;28;20517;-80
2024/01/30 07:22:00;;;;;;;7.90;5.17;;;6.80;99.90;;;;;;5083828;28;20459;-79
2024/01/30 07:24:26;;;;;;;9.67;5.60;;;6.80;99.90;;;;;;5084040;28;20531;-80
2024/01/30 07:26:54;;;;;;;7.20;5.77;;;6.90;99.90;;;;;;5084977;28;20470;-81
2024/01/30 07:29:21;;;;;;;6.87;5.30;;;6.90;99.90;;;;;;5087913;28;20504;-81
2024/01/30 07:31:49;;;;;;;10.10;5.83;;;6.90;99.90;;;;;;5086647;28;20463;-82
2024/01/30 07:34:16;;;;;;;9.40;5.97;;;7.00;99.90;;;;;;5083994;28;20552;-80
2024/01/30 07:36:43;;;;;;;10.30;5.90;;;7.10;99.90;;;;;;5084796;28;20511;-81
2024/01/30 07:39:11;;;;;;;7.63;5.40;;;7.20;99.90;;;;;;5082754;28;20537;-81
2024/01/30 07:41:37;;;;;;;8.70;5.73;;;7.20;99.90;;;;;;5076317;28;20449;-81
2024/01/30 07:44:04;;;;;;;9.13;5.83;;;7.30;99.90;;;;;;5076922;28;20478;-81
2024/01/30 07:46:31;;;;;;;6.83;4.93;;;7.30;99.90;;;;;;5078171;28;20517;-81
2024/01/30 07:49:02;;;;;;;5.33;4.80;;;7.40;99.90;;;;;;5074549;28;21024;-80
2024/01/30 07:51:39;;;;;;;11.73;5.00;;;7.40;99.90;;;;;;5073742;28;20891;-80
2024/01/30 07:54:06;;;;;;;7.80;5.13;;;7.50;99.90;;;;;;5071783;28;20481;-82
2024/01/30 07:56:33;;;;;;;6.83;5.40;;;7.50;99.90;;;;;;5076339;28;20510;-80
2024/01/30 07:59:00;;;;;;;8.00;5.70;;;7.60;99.90;;;;;;5075030;28;20484;-81
2024/01/30 08:01:27;;;;;;;9.20;6.50;;;7.70;99.90;;;;;;5072280;28;20476;-81
2024/01/30 08:03:54;;;;;;;7.13;5.50;;;7.70;99.90;;;;;;5077727;28;20466;-81
2024/01/30 08:06:22;;;;;;;8.43;5.40;;;7.80;99.90;;;;;;5078186;28;20448;-80
2024/01/30 08:08:50;;;;;;;9.43;5.33;;;7.90;99.90;;;;;;5079655;28;20539;-79
2024/01/30 08:11:17;;;;;;;7.93;5.90;;;8.00;99.90;;;;;;5076846;28;20453;-79
2024/01/30 08:13:43;;;;;;;8.27;6.00;;;8.10;99.90;;;;;;5076933;28;20909;-82
2024/01/30 08:16:10;;;;;;;9.40;6.23;;;8.20;99.90;;;;;;5077979;28;20490;-79
2024/01/30 08:18:37;;;;;;;7.20;5.40;;;8.20;99.90;;;;;;5081612;28;20577;-80
2024/01/30 08:21:04;;;;;;;8.77;6.23;;;8.30;99.90;;;;;;5077905;28;20550;-80
2024/01/30 08:23:32;;;;;;;6.27;5.20;;;8.40;99.90;;;;;;5080503;28;20458;-81
2024/01/30 08:25:59;;;;;;;8.60;6.63;;;8.50;99.90;;;;;;5077400;28;20514;-81
2024/01/30 08:28:26;;;;;;;8.93;5.87;;;8.60;99.90;;;;;;5078846;28;20526;-81
2024/01/30 08:30:52;;;;;;;6.37;5.03;;;8.60;99.90;;;;;;5078286;28;20460;-82
2024/01/30 08:33:19;;;;;;;6.03;5.27;;;8.70;99.90;;;;;;5082630;28;20448;-81
2024/01/30 08:35:46;;;;;;;9.23;5.67;;;8.70;99.90;;;;;;5080294;28;20549;-81
2024/01/30 08:38:13;;;;;;;8.70;5.23;;;8.80;99.90;;;;;;5080222;28;20546;-80
2024/01/30 08:40:41;;;;;;;7.57;5.43;;;8.90;99.90;;;;;;5077253;28;20513;-81
2024/01/30 08:43:10;;;;;;;11.33;5.33;;;8.90;99.90;;;;;;5079195;28;20530;-80
2024/01/30 08:45:36;;;;;;;7.50;5.77;;;8.90;99.90;;;;;;5080020;28;20879;-80
2024/01/30 08:48:04;;;;;;;7.60;6.00;;;8.90;99.90;;;;;;5073372;28;20471;-82
2024/01/30 08:50:31;;;;;;;7.00;5.87;;;9.00;99.90;;;;;;5078600;28;20514;-81
2024/01/30 08:53:00;;;;;;;7.53;5.47;;;9.10;99.90;;;;;;5078909;28;20455;-84
2024/01/30 08:55:26;;;;;;;12.43;5.70;;;9.20;99.90;;;;;;5075494;28;20515;-82
2024/01/30 08:57:54;;;;;;;9.57;5.53;;;9.30;99.90;;;;;;5079558;28;20526;-81
2024/01/30 09:00:21;;;;;;;6.90;5.10;;;9.40;99.90;;;;;;5078773;28;20573;-82
2024/01/30 09:02:48;;;;;;;6.00;4.43;;;9.50;99.90;;;;;;5078220;28;20440;-82
2024/01/30 09:05:18;;;;;;;9.10;5.60;;;9.70;99.90;;;;;;5080202;28;20533;-80
2024/01/30 09:07:45;;;;;;;11.27;5.23;;;9.90;99.90;;;;;;5077372;28;20470;-80
2024/01/30 09:10:12;;;;;;;6.60;4.90;;;10.10;99.90;;;;;;5078873;28;20920;-79
2024/01/30 09:12:39;;;;;;;6.10;4.40;;;10.30;99.90;;;;;;5083384;28;20529;-81
2024/01/30 09:15:08;;;;;;;6.50;4.50;;;10.40;99.90;;;;;;5078839;28;20500;-80
2024/01/30 09:17:35;;;;;;;6.03;4.03;;;10.60;99.90;;;;;;5081361;28;21150;-81
2024/01/30 09:20:02;;;;;;;5.50;4.00;;;10.80;99.90;;;;;;5082157;28;20480;-80
2024/01/30 09:22:29;;;;;;;7.80;4.70;;;10.90;99.90;;;;;;5080788;28;20471;-82
2024/01/30 09:24:55;;;;;;;5.87;3.90;;;11.00;99.90;;;;;;5079913;28;20483;-80
2024/01/30 09:27:22;;;;;;;5.73;4.20;;;11.10;99.90;;;;;;5082844;28;20491;-82
2024/01/30 09:29:49;;;;;;;9.10;4.30;;;11.10;99.90;;;;;;5081712;28;20487;-81
2024/01/30 09:32:18;;;;;;;5.80;4.87;;;11.10;99.90;;;;;;5088772;28;20488;-82
2024/01/30 09:34:45;;;;;;;5.90;4.73;;;11.10;99.90;;;;;;5087679;28;20454;-82
2024/01/30 09:37:15;;;;;;;9.97;4.90;;;11.10;99.90;;;;;;5087531;28;20451;-80
2024/01/30 09:39:41;;;;;;;7.53;4.50;;;11.10;99.90;;;;;;5087053;28;20544;-80
2024/01/30 09:42:19;;;;;;;5.97;4.87;;;11.10;99.90;;;;;;5084945;28;20468;-82
2024/01/30 09:44:48;;;;;;;18.90;10.63;;;11.20;99.90;;;;;;5086719;28;20443;-80
2024/01/30 09:47:18;;;;;;;7.90;5.13;;;11.30;99.90;;;;;;5086991;28;20517;-80
2024/01/30 09:49:45;;;;;;;7.80;4.90;;;11.40;99.90;;;;;;5087757;28;20900;-82
2024/01/30 09:52:12;;;;;;;8.10;4.67;;;11.50;99.90;;;;;;5088446;28;20484;-81
2024/01/30 09:54:39;;;;;;;5.37;4.60;;;11.60;99.90;;;;;;5086998;28;20478;-83
2024/01/30 09:57:07;;;;;;;5.20;3.90;;;11.80;99.90;;;;;;5085075;28;20544;-81
2024/01/30 09:59:34;;;;;;;7.00;5.50;;;11.90;99.90;;;;;;5078628;28;20497;-82
2024/01/30 10:02:04;;;;;;;7.10;4.13;;;12.10;99.90;;;;;;5086611;28;20566;-79
2024/01/30 10:04:32;;;;;;;5.60;4.40;;;12.20;99.90;;;;;;5083655;28;20464;-80
2024/01/30 10:07:01;;;;;;;7.63;4.80;;;12.40;99.90;;;;;;5085693;28;20512;-79
2024/01/30 10:09:27;;;;;;;7.90;4.50;;;12.40;99.90;;;;;;5086281;28;20478;-80
2024/01/30 10:11:54;;;;;;;9.80;4.27;;;12.60;99.90;;;;;;5086231;28;20541;-80
2024/01/30 10:14:21;;;;;;;8.90;5.03;;;12.50;99.90;;;;;;5083453;28;20453;-81
2024/01/30 10:16:48;;;;;;;7.23;4.80;;;12.50;99.90;;;;;;5086448;28;20493;-82
2024/01/30 10:19:15;;;;;;;5.53;3.60;;;12.50;99.90;;;;;;5086264;28;20826;-79
2024/01/30 10:21:43;;;;;;;5.00;3.30;;;12.60;99.90;;;;;;5087066;28;20485;-81
2024/01/30 10:24:12;;;;;;;5.97;4.77;;;12.70;99.90;;;;;;5077699;28;20464;-80
2024/01/30 10:26:39;;;;;;;7.10;4.47;;;12.90;99.90;;;;;;5086919;28;20838;-81
2024/01/30 10:29:06;;;;;;;6.23;4.10;;;13.10;99.90;;;;;;5082865;28;20498;-81
2024/01/30 10:31:33;;;;;;;9.00;4.87;;;13.20;99.90;;;;;;5089547;28;20519;-80
2024/01/30 10:34:00;;;;;;;13.57;9.00;;;13.20;99.90;;;;;;5082742;28;20447;-80
2024/01/30 10:36:30;;;;;;;6.77;5.10;;;13.30;99.90;;;;;;5089654;28;20535;-81
2024/01/30 10:39:01;;;;;;;5.53;3.83;;;13.40;99.90;;;;;;5075095;28;20478;-79
2024/01/30 10:41:28;;;;;;;5.20;3.93;;;13.50;99.90;;;;;;5085563;28;20485;-80
2024/01/30 10:44:02;;;;;;;7.63;4.00;;;13.60;99.90;;;;;;5081327;28;20470;-80
2024/01/30 10:46:33;;;;;;;10.33;4.63;;;13.70;99.90;;;;;;5078738;28;20518;-80
2024/01/30 10:49:01;;;;;;;8.37;5.37;;;13.80;99.90;;;;;;5090563;28;20864;-79
2024/01/30 10:51:29;;;;;;;7.20;4.33;;;14.10;99.90;;;;;;5089614;28;20458;-79
2024/01/30 10:53:58;;;;;;;6.63;3.83;;;14.40;99.90;;;;;;5089986;28;20449;-80
2024/01/30 10:56:25;;;;;;;5.63;4.20;;;14.70;99.90;;;;;;5089565;28;20451;-80
2024/01/30 10:58:53;;;;;;;7.73;3.77;;;14.70;99.90;;;;;;5088092;28;20528;-80
2024/01/30 11:01:22;;;;;;;7.13;4.23;;;14.80;99.90;;;;;;5081566;28;20477;-81
2024/01/30 11:03:50;;;;;;;9.33;4.50;;;14.80;99.90;;;;;;5084866;28;20451;-80
2024/01/30 11:06:18;;;;;;;7.07;4.00;;;14.90;99.90;;;;;;5082507;28;20471;-80
2024/01/30 11:08:46;;;;;;;6.10;3.60;;;15.00;99.90;;;;;;5082514;28;20487;-81
2024/01/30 11:11:18;;;;;;;6.63;3.60;;;14.80;99.90;;;;;;5084282;28;20479;-81
2024/01/30 11:13:45;;;;;;;4.50;3.77;;;14.70;99.90;;;;;;5085698;28;20991;-80
2024/01/30 11:16:13;;;;;;;100.13;17.30;;;14.40;99.90;;;;;;5084907;28;20548;-81
2024/01/30 11:18:39;;;;;;;7.70;4.30;;;14.30;99.90;;;;;;5084596;28;20485;-80
2024/01/30 11:21:06;;;;;;;8.63;4.40;;;14.10;99.90;;;;;;5085954;28;21081;-80
2024/01/30 11:23:34;;;;;;;7.13;4.43;;;14.10;99.90;;;;;;5086199;28;20467;-81
2024/01/30 11:26:02;;;;;;;12.73;4.07;;;14.10;99.90;;;;;;5084526;28;20452;-81
2024/01/30 11:28:35;;;;;;;10.10;4.73;;;14.10;99.90;;;;;;5085360;28;20485;-82
2024/01/30 11:31:06;;;;;;;9.80;4.03;;;14.00;99.90;;;;;;5087192;28;20460;-82
2024/01/30 11:33:34;;;;;;;10.37;4.70;;;14.00;99.90;;;;;;5085350;28;20883;-80
2024/01/30 11:36:01;;;;;;;6.87;4.23;;;14.10;99.90;;;;;;5083766;28;20925;-80
2024/01/30 11:38:29;;;;;;;6.40;4.27;;;14.20;99.90;;;;;;5084203;28;20475;-80
2024/01/30 11:40:57;;;;;;;5.83;4.13;;;14.30;99.90;;;;;;5083930;28;20550;-80
2024/01/30 11:43:24;;;;;;;6.63;4.00;;;14.00;99.90;;;;;;5084220;28;20443;-80
2024/01/30 11:45:52;;;;;;;5.37;4.33;;;14.00;99.90;;;;;;5081888;28;20838;-79
2024/01/30 11:48:20;;;;;;;9.40;4.63;;;13.90;99.90;;;;;;5084995;28;20475;-80
2024/01/30 11:50:47;;;;;;;11.47;5.67;;;13.80;99.90;;;;;;5082806;28;20522;-80
2024/01/30 11:53:14;;;;;;;8.73;4.70;;;13.60;99.90;;;;;;5083957;28;20458;-81
2024/01/30 11:55:41;;;;;;;8.53;5.70;;;13.60;99.90;;;;;;5077554;28;20738;-81
2024/01/30 11:58:08;;;;;;;8.53;4.53;;;13.40;99.90;;;;;;5074038;28;20496;-81
2024/01/30 12:00:35;;;;;;;10.17;5.17;;;13.50;99.90;;;;;;5079185;28;20508;-80
2024/01/30 12:03:06;;;;;;;9.03;5.27;;;13.50;99.90;;;;;;5077631;28;20824;-81
2024/01/30 12:05:33;;;;;;;7.10;4.30;;;13.50;99.90;;;;;;5079607;28;20498;-81
2024/01/30 12:08:00;;;;;;;10.23;5.93;;;13.40;99.90;;;;;;5082947;28;20527;-81
2024/01/30 12:10:27;;;;;;;11.90;5.83;;;13.40;99.90;;;;;;5083866;28;20533;-79
2024/01/30 12:12:54;;;;;;;8.77;4.90;;;13.40;99.90;;;;;;5085251;28;20442;-82
2024/01/30 12:15:23;;;;;;;7.13;5.13;;;13.40;99.90;;;;;;5078223;28;20725;-80
2024/01/30 12:17:50;;;;;;;10.00;4.40;;;13.30;99.90;;;;;;5088452;28;20470;-80
2024/01/30 12:20:21;;;;;;;6.47;4.80;;;13.30;99.90;;;;;;5084771;28;20480;-81
2024/01/30 12:22:49;;;;;;;9.03;5.00;;;13.20;99.90;;;;;;5085257;28;20481;-81
2024/01/30 12:25:17;;;;;;;13.00;5.80;;;13.10;99.90;;;;;;5085628;28;20488;-80
2024/01/30 12:27:45;;;;;;;8.77;5.00;;;12.90;99.90;;;;;;5088426;28;20549;-82
2024/01/30 12:30:14;;;;;;;9.60;5.23;;;12.90;99.90;;;;;;5081286;28;20459;-81
2024/01/30 12:32:44;;;;;;;10.07;6.50;;;12.90;99.90;;;;;;5090340;28;20968;-81
2024/01/30 12:35:11;;;;;;;10.63;4.90;;;13.00;99.90;;;;;;5083926;28;20485;-81
2024/01/30 12:37:40;;;;;;;10.23;6.20;;;13.10;99.90;;;;;;5081481;28;20494;-82
2024/01/30 12:40:09;;;;;;;10.90;6.10;;;13.10;99.90;;;;;;5085100;28;20524;-82
2024/01/30 12:42:35;;;;;;;7.60;4.70;;;13.20;99.90;;;;;;5089349;28;20509;-82
2024/01/30 12:45:03;;;;;;;6.00;5.17;;;13.20;99.90;;;;;;5088811;28;20449;-83
2024/01/30 12:47:30;;;;;;;8.23;5.20;;;13.30;99.90;;;;;;5088811;28;20470;-82
2024/01/30 12:49:57;;;;;;;15.93;5.40;;;13.20;99.90;;;;;;5089557;28;20523;-82